Saint Francis River (Missouri), Mill Creek (07035800)

StateMissouriLatestGood (464 cfs)
RiverSaint Francis RiverRatingObservedEstimated
Updated2020-08-11 19:30 (45 minutes ago)Flood - The river is flooding. Obstacles can be treacherous or deadly. The river should be avoided at this stage for casual trips and definitely for the inexperienced. Trips should be attempted only with protective gear and equipment.Flood(none)3018
Discharge464 cfs (median: 27 cfs)High - The river is high and potentially dangerous, especially for the young and / or inexperienced. Normal stream obstacles are sometimes difficult to navigate. Extended distances can be attempted, but canoe travel may not be advisable.High(none)1131
Height2.71 feetGood - Conditions are ideal for a canoe or kayak. Boats typically will drag on fewer than one-quarter of riffles, if at all, and portages are unnecessary or rare. Normal float lengths can be attempted without a problem.Good(none)419
TrendRising (rising over 24 hours)Low - River is low but can still be floated. Some riffles are okay but most come with significant dragging and might need a portage. Float lengths should be reduced to accommodate low flow, dragging, and portages.Low(none)111
USGSExternal icon USGS Site (External icon Google Maps)Poor - River is too low to float comfortably. Most or all riffles will drag or must be portaged and some obstacles (such as slick shelf rock) cause undue problems. Avoid the river at this stage for casual paddling trips.Poor(none)26

Trending Data

Plot Image

Trips for Saint Francis River (Missouri), Mill Creek (07035800)

DateStartEndDistanceConditionDischargeHeightFishingDetails

A total of 0 rows are displayed.

Condition Descriptions

Fishing Conditions

Fish Species

Notes

Classic Trip List

The classic River Trips application is still available for use. It is updated with the new system using a data retrofit. It is no longer maintained. The original River Trips application is no longer updated (as of 1 Dec 2016) but can be checked for errors or for the condition of the data before it was converted to the new system.

Gauge Data Table

ObservationHeightDischargeMaximum
Discharge
Minimum
Discharge
Mean
Discharge
P05P10P20P25P50
(Median)
P75P80P90P95
2020-08-11 19:30 2.71 464 1170 (2013) 2 (2012) 98 4 5 9 15 27 38 57 105 1050
2020-08-11 19:00 2.70 459 1170 (2013) 2 (2012) 98 4 5 9 15 27 38 57 105 1050
2020-08-11 18:30 2.70 459 1170 (2013) 2 (2012) 98 4 5 9 15 27 38 57 105 1050
2020-08-11 18:00 2.71 464 1170 (2013) 2 (2012) 98 4 5 9 15 27 38 57 105 1050
2020-08-11 17:30 2.71 464 1170 (2013) 2 (2012) 98 4 5 9 15 27 38 57 105 1050
2020-08-11 17:00 2.71 464 1170 (2013) 2 (2012) 98 4 5 9 15 27 38 57 105 1050
2020-08-11 16:30 2.70 459 1170 (2013) 2 (2012) 98 4 5 9 15 27 38 57 105 1050
2020-08-11 16:00 2.69 455 1170 (2013) 2 (2012) 98 4 5 9 15 27 38 57 105 1050
2020-08-11 15:30 2.66 442 1170 (2013) 2 (2012) 98 4 5 9 15 27 38 57 105 1050
2020-08-11 15:00 2.64 434 1170 (2013) 2 (2012) 98 4 5 9 15 27 38 57 105 1050
2020-08-11 14:30 2.62 426 1170 (2013) 2 (2012) 98 4 5 9 15 27 38 57 105 1050
2020-08-11 14:00 2.52 387 1170 (2013) 2 (2012) 98 4 5 9 15 27 38 57 105 1050
2020-08-11 13:30 2.50 379 1170 (2013) 2 (2012) 98 4 5 9 15 27 38 57 105 1050
2020-08-11 13:00 2.49 375 1170 (2013) 2 (2012) 98 4 5 9 15 27 38 57 105 1050
2020-08-11 12:30 2.48 372 1170 (2013) 2 (2012) 98 4 5 9 15 27 38 57 105 1050
2020-08-11 12:00 2.47 368 1170 (2013) 2 (2012) 98 4 5 9 15 27 38 57 105 1050
2020-08-11 11:30 2.46 364 1170 (2013) 2 (2012) 98 4 5 9 15 27 38 57 105 1050
2020-08-11 11:00 2.45 361 1170 (2013) 2 (2012) 98 4 5 9 15 27 38 57 105 1050
2020-08-11 10:30 2.44 357 1170 (2013) 2 (2012) 98 4 5 9 15 27 38 57 105 1050
2020-08-11 10:00 2.43 354 1170 (2013) 2 (2012) 98 4 5 9 15 27 38 57 105 1050
2020-08-11 09:30 2.42 350 1170 (2013) 2 (2012) 98 4 5 9 15 27 38 57 105 1050
2020-08-11 09:00 2.40 343 1170 (2013) 2 (2012) 98 4 5 9 15 27 38 57 105 1050
2020-08-11 08:30 2.39 340 1170 (2013) 2 (2012) 98 4 5 9 15 27 38 57 105 1050
2020-08-11 08:00 2.38 337 1170 (2013) 2 (2012) 98 4 5 9 15 27 38 57 105 1050
2020-08-11 07:30 2.37 333 1170 (2013) 2 (2012) 98 4 5 9 15 27 38 57 105 1050
2020-08-11 07:00 2.36 330 1170 (2013) 2 (2012) 98 4 5 9 15 27 38 57 105 1050
2020-08-11 06:30 2.35 327 1170 (2013) 2 (2012) 98 4 5 9 15 27 38 57 105 1050
2020-08-11 06:00 2.35 327 1170 (2013) 2 (2012) 98 4 5 9 15 27 38 57 105 1050
2020-08-11 05:30 2.34 323 1170 (2013) 2 (2012) 98 4 5 9 15 27 38 57 105 1050
2020-08-11 05:00 2.33 320 1170 (2013) 2 (2012) 98 4 5 9 15 27 38 57 105 1050
2020-08-11 04:30 2.32 317 1170 (2013) 2 (2012) 98 4 5 9 15 27 38 57 105 1050
2020-08-11 04:00 2.31 314 1170 (2013) 2 (2012) 98 4 5 9 15 27 38 57 105 1050
2020-08-11 03:30 2.30 310 1170 (2013) 2 (2012) 98 4 5 9 15 27 38 57 105 1050
2020-08-11 03:00 2.30 310 1170 (2013) 2 (2012) 98 4 5 9 15 27 38 57 105 1050
2020-08-11 02:30 2.29 307 1170 (2013) 2 (2012) 98 4 5 9 15 27 38 57 105 1050
2020-08-11 02:00 2.29 307 1170 (2013) 2 (2012) 98 4 5 9 15 27 38 57 105 1050
2020-08-11 01:30 2.29 307 1170 (2013) 2 (2012) 98 4 5 9 15 27 38 57 105 1050
2020-08-11 01:00 2.29 307 1170 (2013) 2 (2012) 98 4 5 9 15 27 38 57 105 1050
2020-08-11 00:30 2.30 310 1170 (2013) 2 (2012) 98 4 5 9 15 27 38 57 105 1050
2020-08-11 00:00 2.30 310 1170 (2013) 2 (2012) 98 4 5 9 15 27 38 57 105 1050
2020-08-10 23:30 2.30 310 2730 (2013) 3 (2012) 199 3 5 10 18 28 44 76 214 2450
2020-08-10 23:00 2.31 314 2730 (2013) 3 (2012) 199 3 5 10 18 28 44 76 214 2450
2020-08-10 22:30 2.32 317 2730 (2013) 3 (2012) 199 3 5 10 18 28 44 76 214 2450
2020-08-10 22:00 2.32 317 2730 (2013) 3 (2012) 199 3 5 10 18 28 44 76 214 2450
2020-08-10 21:30 2.33 320 2730 (2013) 3 (2012) 199 3 5 10 18 28 44 76 214 2450
2020-08-10 21:00 2.34 323 2730 (2013) 3 (2012) 199 3 5 10 18 28 44 76 214 2450
2020-08-10 20:30 2.34 323 2730 (2013) 3 (2012) 199 3 5 10 18 28 44 76 214 2450
2020-08-10 20:00 2.34 323 2730 (2013) 3 (2012) 199 3 5 10 18 28 44 76 214 2450
2020-08-10 19:30 2.35 327 2730 (2013) 3 (2012) 199 3 5 10 18 28 44 76 214 2450
2020-08-10 19:00 2.36 330 2730 (2013) 3 (2012) 199 3 5 10 18 28 44 76 214 2450
2020-08-10 18:30 2.37 333 2730 (2013) 3 (2012) 199 3 5 10 18 28 44 76 214 2450
2020-08-10 18:00 2.39 340 2730 (2013) 3 (2012) 199 3 5 10 18 28 44 76 214 2450
2020-08-10 17:30 2.40 343 2730 (2013) 3 (2012) 199 3 5 10 18 28 44 76 214 2450
2020-08-10 17:00 2.41 347 2730 (2013) 3 (2012) 199 3 5 10 18 28 44 76 214 2450
2020-08-10 16:30 2.43 354 2730 (2013) 3 (2012) 199 3 5 10 18 28 44 76 214 2450
2020-08-10 16:00 2.43 354 2730 (2013) 3 (2012) 199 3 5 10 18 28 44 76 214 2450
2020-08-10 15:30 2.45 361 2730 (2013) 3 (2012) 199 3 5 10 18 28 44 76 214 2450
2020-08-10 15:00 2.46 364 2730 (2013) 3 (2012) 199 3 5 10 18 28 44 76 214 2450
2020-08-10 14:30 2.48 372 2730 (2013) 3 (2012) 199 3 5 10 18 28 44 76 214 2450
2020-08-10 14:00 2.49 375 2730 (2013) 3 (2012) 199 3 5 10 18 28 44 76 214 2450
2020-08-10 13:30 2.51 383 2730 (2013) 3 (2012) 199 3 5 10 18 28 44 76 214 2450
2020-08-10 13:00 2.52 387 2730 (2013) 3 (2012) 199 3 5 10 18 28 44 76 214 2450
2020-08-10 12:30 2.54 394 2730 (2013) 3 (2012) 199 3 5 10 18 28 44 76 214 2450
2020-08-10 12:00 2.56 402 2730 (2013) 3 (2012) 199 3 5 10 18 28 44 76 214 2450
2020-08-10 11:30 2.57 406 2730 (2013) 3 (2012) 199 3 5 10 18 28 44 76 214 2450
2020-08-10 11:00 2.59 414 2730 (2013) 3 (2012) 199 3 5 10 18 28 44 76 214 2450
2020-08-10 10:30 2.61 422 2730 (2013) 3 (2012) 199 3 5 10 18 28 44 76 214 2450
2020-08-10 10:00 2.63 430 2730 (2013) 3 (2012) 199 3 5 10 18 28 44 76 214 2450
2020-08-10 09:30 2.64 434 2730 (2013) 3 (2012) 199 3 5 10 18 28 44 76 214 2450
2020-08-10 09:00 2.66 442 2730 (2013) 3 (2012) 199 3 5 10 18 28 44 76 214 2450
2020-08-10 08:30 2.67 446 2730 (2013) 3 (2012) 199 3 5 10 18 28 44 76 214 2450
2020-08-10 08:00 2.69 455 2730 (2013) 3 (2012) 199 3 5 10 18 28 44 76 214 2450
2020-08-10 07:30 2.70 459 2730 (2013) 3 (2012) 199 3 5 10 18 28 44 76 214 2450
2020-08-10 07:00 2.72 468 2730 (2013) 3 (2012) 199 3 5 10 18 28 44 76 214 2450
2020-08-10 06:30 2.73 472 2730 (2013) 3 (2012) 199 3 5 10 18 28 44 76 214 2450
2020-08-10 06:00 2.74 477 2730 (2013) 3 (2012) 199 3 5 10 18 28 44 76 214 2450
2020-08-10 05:30 2.76 486 2730 (2013) 3 (2012) 199 3 5 10 18 28 44 76 214 2450
2020-08-10 05:00 2.77 490 2730 (2013) 3 (2012) 199 3 5 10 18 28 44 76 214 2450
2020-08-10 04:30 2.79 500 2730 (2013) 3 (2012) 199 3 5 10 18 28 44 76 214 2450
2020-08-10 04:00 2.81 509 2730 (2013) 3 (2012) 199 3 5 10 18 28 44 76 214 2450
2020-08-10 03:30 2.83 518 2730 (2013) 3 (2012) 199 3 5 10 18 28 44 76 214 2450
2020-08-10 03:00 2.85 528 2730 (2013) 3 (2012) 199 3 5 10 18 28 44 76 214 2450
2020-08-10 02:30 2.87 538 2730 (2013) 3 (2012) 199 3 5 10 18 28 44 76 214 2450
2020-08-10 02:00 2.90 553 2730 (2013) 3 (2012) 199 3 5 10 18 28 44 76 214 2450
2020-08-10 01:30 2.93 568 2730 (2013) 3 (2012) 199 3 5 10 18 28 44 76 214 2450
2020-08-10 01:00 2.95 578 2730 (2013) 3 (2012) 199 3 5 10 18 28 44 76 214 2450
2020-08-10 00:30 2.98 594 2730 (2013) 3 (2012) 199 3 5 10 18 28 44 76 214 2450
2020-08-10 00:00 3.00 605 2730 (2013) 3 (2012) 199 3 5 10 18 28 44 76 214 2450
2020-08-09 23:30 3.01 610 3110 (2013) 3 (2012) 147 4 6 11 16 35 50 52 161 1460
2020-08-09 23:00 3.02 616 3110 (2013) 3 (2012) 147 4 6 11 16 35 50 52 161 1460
2020-08-09 22:30 3.03 621 3110 (2013) 3 (2012) 147 4 6 11 16 35 50 52 161 1460
2020-08-09 22:00 3.03 621 3110 (2013) 3 (2012) 147 4 6 11 16 35 50 52 161 1460
2020-08-09 21:30 3.02 616 3110 (2013) 3 (2012) 147 4 6 11 16 35 50 52 161 1460
2020-08-09 21:00 3.01 610 3110 (2013) 3 (2012) 147 4 6 11 16 35 50 52 161 1460
2020-08-09 20:30 3.00 605 3110 (2013) 3 (2012) 147 4 6 11 16 35 50 52 161 1460
2020-08-09 20:00 2.99 599 3110 (2013) 3 (2012) 147 4 6 11 16 35 50 52 161 1460
2020-08-09 19:30 2.98 594 3110 (2013) 3 (2012) 147 4 6 11 16 35 50 52 161 1460
2020-08-09 19:00 2.97 589 3110 (2013) 3 (2012) 147 4 6 11 16 35 50 52 161 1460
2020-08-09 18:30 2.96 584 3110 (2013) 3 (2012) 147 4 6 11 16 35 50 52 161 1460
2020-08-09 18:00 2.92 563 3110 (2013) 3 (2012) 147 4 6 11 16 35 50 52 161 1460
2020-08-09 17:30 2.87 538 3110 (2013) 3 (2012) 147 4 6 11 16 35 50 52 161 1460
2020-08-09 17:00 2.80 504 3110 (2013) 3 (2012) 147 4 6 11 16 35 50 52 161 1460
2020-08-09 16:30 2.73 472 3110 (2013) 3 (2012) 147 4 6 11 16 35 50 52 161 1460
2020-08-09 16:00 2.68 451 3110 (2013) 3 (2012) 147 4 6 11 16 35 50 52 161 1460
2020-08-09 15:30 2.67 446 3110 (2013) 3 (2012) 147 4 6 11 16 35 50 52 161 1460
2020-08-09 15:00 2.67 446 3110 (2013) 3 (2012) 147 4 6 11 16 35 50 52 161 1460
2020-08-09 14:30 2.67 446 3110 (2013) 3 (2012) 147 4 6 11 16 35 50 52 161 1460
2020-08-09 14:00 2.68 451 3110 (2013) 3 (2012) 147 4 6 11 16 35 50 52 161 1460
2020-08-09 13:30 2.68 451 3110 (2013) 3 (2012) 147 4 6 11 16 35 50 52 161 1460
2020-08-09 13:00 2.65 438 3110 (2013) 3 (2012) 147 4 6 11 16 35 50 52 161 1460
2020-08-09 12:30 2.57 406 3110 (2013) 3 (2012) 147 4 6 11 16 35 50 52 161 1460
2020-08-09 12:00 2.42 350 3110 (2013) 3 (2012) 147 4 6 11 16 35 50 52 161 1460
2020-08-09 11:30 2.21 280 3110 (2013) 3 (2012) 147 4 6 11 16 35 50 52 161 1460
2020-08-09 11:00 1.95 199 3110 (2013) 3 (2012) 147 4 6 11 16 35 50 52 161 1460
2020-08-09 10:30 1.73 147 3110 (2013) 3 (2012) 147 4 6 11 16 35 50 52 161 1460
2020-08-09 10:00 1.62 126 3110 (2013) 3 (2012) 147 4 6 11 16 35 50 52 161 1460
2020-08-09 09:30 1.59 120 3110 (2013) 3 (2012) 147 4 6 11 16 35 50 52 161 1460
2020-08-09 09:00 1.57 117 3110 (2013) 3 (2012) 147 4 6 11 16 35 50 52 161 1460
2020-08-09 08:30 1.56 115 3110 (2013) 3 (2012) 147 4 6 11 16 35 50 52 161 1460
2020-08-09 08:00 1.55 114 3110 (2013) 3 (2012) 147 4 6 11 16 35 50 52 161 1460
2020-08-09 07:30 1.54 112 3110 (2013) 3 (2012) 147 4 6 11 16 35 50 52 161 1460
2020-08-09 07:00 1.53 110 3110 (2013) 3 (2012) 147 4 6 11 16 35 50 52 161 1460
2020-08-09 06:30 1.51 107 3110 (2013) 3 (2012) 147 4 6 11 16 35 50 52 161 1460
2020-08-09 06:00 1.50 105 3110 (2013) 3 (2012) 147 4 6 11 16 35 50 52 161 1460
2020-08-09 05:30 1.49 104 3110 (2013) 3 (2012) 147 4 6 11 16 35 50 52 161 1460
2020-08-09 05:00 1.49 104 3110 (2013) 3 (2012) 147 4 6 11 16 35 50 52 161 1460
2020-08-09 04:30 1.49 104 3110 (2013) 3 (2012) 147 4 6 11 16 35 50 52 161 1460
2020-08-09 04:00 1.49 104 3110 (2013) 3 (2012) 147 4 6 11 16 35 50 52 161 1460
2020-08-09 03:30 1.49 104 3110 (2013) 3 (2012) 147 4 6 11 16 35 50 52 161 1460
2020-08-09 03:00 1.49 104 3110 (2013) 3 (2012) 147 4 6 11 16 35 50 52 161 1460
2020-08-09 02:30 1.49 104 3110 (2013) 3 (2012) 147 4 6 11 16 35 50 52 161 1460
2020-08-09 02:00 1.50 105 3110 (2013) 3 (2012) 147 4 6 11 16 35 50 52 161 1460
2020-08-09 01:30 1.50 105 3110 (2013) 3 (2012) 147 4 6 11 16 35 50 52 161 1460
2020-08-09 01:00 1.50 105 3110 (2013) 3 (2012) 147 4 6 11 16 35 50 52 161 1460
2020-08-09 00:30 1.50 105 3110 (2013) 3 (2012) 147 4 6 11 16 35 50 52 161 1460
2020-08-09 00:00 1.50 105 3110 (2013) 3 (2012) 147 4 6 11 16 35 50 52 161 1460
2020-08-08 23:30 1.50 105 484 (2013) 3 (2012) 57 4 7 10 18 37 58 67 104 300
2020-08-08 23:00 1.51 107 484 (2013) 3 (2012) 57 4 7 10 18 37 58 67 104 300
2020-08-08 22:30 1.51 107 484 (2013) 3 (2012) 57 4 7 10 18 37 58 67 104 300
2020-08-08 22:00 1.51 107 484 (2013) 3 (2012) 57 4 7 10 18 37 58 67 104 300
2020-08-08 21:30 1.51 107 484 (2013) 3 (2012) 57 4 7 10 18 37 58 67 104 300
2020-08-08 21:00 1.51 107 484 (2013) 3 (2012) 57 4 7 10 18 37 58 67 104 300
2020-08-08 20:30 1.52 109 484 (2013) 3 (2012) 57 4 7 10 18 37 58 67 104 300
2020-08-08 20:00 1.52 109 484 (2013) 3 (2012) 57 4 7 10 18 37 58 67 104 300
2020-08-08 19:30 1.52 109 484 (2013) 3 (2012) 57 4 7 10 18 37 58 67 104 300
2020-08-08 19:00 1.52 109 484 (2013) 3 (2012) 57 4 7 10 18 37 58 67 104 300
2020-08-08 18:30 1.52 109 484 (2013) 3 (2012) 57 4 7 10 18 37 58 67 104 300
2020-08-08 18:00 1.52 109 484 (2013) 3 (2012) 57 4 7 10 18 37 58 67 104 300
2020-08-08 17:30 1.53 110 484 (2013) 3 (2012) 57 4 7 10 18 37 58 67 104 300
2020-08-08 17:00 1.53 110 484 (2013) 3 (2012) 57 4 7 10 18 37 58 67 104 300
2020-08-08 16:30 1.53 110 484 (2013) 3 (2012) 57 4 7 10 18 37 58 67 104 300
2020-08-08 16:00 1.53 110 484 (2013) 3 (2012) 57 4 7 10 18 37 58 67 104 300
2020-08-08 15:30 1.53 110 484 (2013) 3 (2012) 57 4 7 10 18 37 58 67 104 300
2020-08-08 15:00 1.54 112 484 (2013) 3 (2012) 57 4 7 10 18 37 58 67 104 300
2020-08-08 14:30 1.54 112 484 (2013) 3 (2012) 57 4 7 10 18 37 58 67 104 300
2020-08-08 14:00 1.54 112 484 (2013) 3 (2012) 57 4 7 10 18 37 58 67 104 300
2020-08-08 13:30 1.54 112 484 (2013) 3 (2012) 57 4 7 10 18 37 58 67 104 300
2020-08-08 13:00 1.55 114 484 (2013) 3 (2012) 57 4 7 10 18 37 58 67 104 300
2020-08-08 12:30 1.55 114 484 (2013) 3 (2012) 57 4 7 10 18 37 58 67 104 300
2020-08-08 12:00 1.55 114 484 (2013) 3 (2012) 57 4 7 10 18 37 58 67 104 300
2020-08-08 11:30 1.55 114 484 (2013) 3 (2012) 57 4 7 10 18 37 58 67 104 300
2020-08-08 11:00 1.55 114 484 (2013) 3 (2012) 57 4 7 10 18 37 58 67 104 300
2020-08-08 10:30 1.55 114 484 (2013) 3 (2012) 57 4 7 10 18 37 58 67 104 300
2020-08-08 10:00 1.56 115 484 (2013) 3 (2012) 57 4 7 10 18 37 58 67 104 300
2020-08-08 09:30 1.56 115 484 (2013) 3 (2012) 57 4 7 10 18 37 58 67 104 300
2020-08-08 09:00 1.56 115 484 (2013) 3 (2012) 57 4 7 10 18 37 58 67 104 300
2020-08-08 08:30 1.56 115 484 (2013) 3 (2012) 57 4 7 10 18 37 58 67 104 300
2020-08-08 08:00 1.56 115 484 (2013) 3 (2012) 57 4 7 10 18 37 58 67 104 300
2020-08-08 07:30 1.56 115 484 (2013) 3 (2012) 57 4 7 10 18 37 58 67 104 300
2020-08-08 07:00 1.57 117 484 (2013) 3 (2012) 57 4 7 10 18 37 58 67 104 300
2020-08-08 06:30 1.57 117 484 (2013) 3 (2012) 57 4 7 10 18 37 58 67 104 300
2020-08-08 06:00 1.57 117 484 (2013) 3 (2012) 57 4 7 10 18 37 58 67 104 300
2020-08-08 05:30 1.57 117 484 (2013) 3 (2012) 57 4 7 10 18 37 58 67 104 300
2020-08-08 05:00 1.57 117 484 (2013) 3 (2012) 57 4 7 10 18 37 58 67 104 300
2020-08-08 04:30 1.57 117 484 (2013) 3 (2012) 57 4 7 10 18 37 58 67 104 300
2020-08-08 04:00 1.58 119 484 (2013) 3 (2012) 57 4 7 10 18 37 58 67 104 300
2020-08-08 03:30 1.58 119 484 (2013) 3 (2012) 57 4 7 10 18 37 58 67 104 300
2020-08-08 03:00 1.58 119 484 (2013) 3 (2012) 57 4 7 10 18 37 58 67 104 300
2020-08-08 02:30 1.58 119 484 (2013) 3 (2012) 57 4 7 10 18 37 58 67 104 300
2020-08-08 02:00 1.58 119 484 (2013) 3 (2012) 57 4 7 10 18 37 58 67 104 300
2020-08-08 01:30 1.59 120 484 (2013) 3 (2012) 57 4 7 10 18 37 58 67 104 300
2020-08-08 01:00 1.59 120 484 (2013) 3 (2012) 57 4 7 10 18 37 58 67 104 300
2020-08-08 00:30 1.59 120 484 (2013) 3 (2012) 57 4 7 10 18 37 58 67 104 300
2020-08-08 00:00 1.59 120 484 (2013) 3 (2012) 57 4 7 10 18 37 58 67 104 300

A total of 184 rows are displayed for years 1987 through 2019.